createdAt,value
2018-10-21T00:04:30.538Z,7.60
2018-10-21T00:09:35.460Z,7.70
2018-10-21T00:14:40.212Z,7.60
2018-10-21T00:19:45.284Z,7.50
2018-10-21T00:24:49.675Z,7.30
2018-10-21T00:29:54.150Z,7.10
2018-10-21T00:34:58.515Z,7.10
2018-10-21T00:40:03.079Z,7.10
2018-10-21T00:45:09.510Z,6.80
2018-10-21T00:50:14.212Z,6.80
2018-10-21T00:55:18.596Z,6.70
2018-10-21T01:00:23.798Z,6.70
2018-10-21T01:05:29.059Z,6.70
2018-10-21T01:10:33.344Z,6.80
2018-10-21T01:15:37.779Z,6.70
2018-10-21T01:20:42.855Z,6.60
2018-10-21T01:25:48.427Z,6.60
2018-10-21T01:30:53.478Z,6.70
2018-10-21T01:35:58.274Z,6.60
2018-10-21T01:41:02.912Z,6.50
2018-10-21T01:46:07.440Z,6.30
2018-10-21T01:51:12.571Z,6.30
2018-10-21T01:56:16.970Z,6.30
2018-10-21T02:01:21.377Z,6.10
2018-10-21T02:06:25.615Z,6.20
2018-10-21T02:11:33.164Z,6.40
2018-10-21T02:16:37.541Z,6.80
2018-10-21T02:21:42.086Z,6.80
2018-10-21T02:26:46.965Z,6.90
2018-10-21T02:31:51.456Z,6.70
2018-10-21T02:36:56.186Z,6.60
2018-10-21T02:42:00.820Z,6.40
2018-10-21T02:47:05.577Z,6.30
2018-10-21T02:52:11.194Z,6.40
2018-10-21T02:57:16.446Z,6.40
2018-10-21T03:02:20.938Z,6.50
2018-10-21T03:07:25.377Z,6.50
2018-10-21T03:12:29.740Z,6.50
2018-10-21T03:17:34.187Z,6.40
2018-10-21T03:22:38.764Z,6.20
2018-10-21T03:27:43.190Z,6.10
2018-10-21T03:32:47.608Z,6.00
2018-10-21T03:37:52.889Z,6.00
2018-10-21T03:42:57.418Z,6.00
2018-10-21T03:48:01.917Z,6.20
2018-10-21T03:53:06.627Z,6.40
2018-10-21T03:58:11.075Z,6.50
2018-10-21T04:03:15.582Z,6.40
2018-10-21T04:08:19.945Z,6.40
2018-10-21T04:13:24.641Z,6.50
2018-10-21T04:18:29.154Z,6.50
2018-10-21T04:23:33.996Z,6.40
2018-10-21T04:28:40.053Z,6.40
2018-10-21T04:33:45.616Z,6.40
2018-10-21T04:40:03.779Z,6.30
2018-10-21T04:45:08.733Z,6.20
2018-10-21T04:50:13.464Z,6.40
2018-10-21T04:55:17.916Z,6.50
2018-10-21T05:00:22.663Z,6.60
2018-10-21T05:05:28.029Z,6.50
2018-10-21T05:10:33.853Z,6.40
2018-10-21T05:15:39.386Z,6.40
2018-10-21T05:20:44.411Z,6.60
2018-10-21T05:25:48.690Z,6.70
2018-10-21T05:30:53.643Z,6.90
2018-10-21T05:35:58.313Z,7.00
2018-10-21T05:41:02.943Z,7.10
2018-10-21T05:46:07.605Z,7.20
2018-10-21T05:51:11.955Z,7.20
2018-10-21T05:56:16.530Z,7.30
2018-10-21T06:01:20.972Z,7.40
2018-10-21T06:06:25.717Z,7.50
2018-10-21T06:11:30.576Z,7.60
2018-10-21T06:16:45.635Z,7.70
2018-10-21T06:21:50.219Z,7.90
2018-10-21T06:26:54.959Z,8.10
2018-10-21T06:32:00.073Z,8.20
2018-10-21T06:37:05.455Z,8.30
2018-10-21T06:42:09.958Z,8.30
2018-10-21T06:47:14.523Z,8.40
2018-10-21T06:52:19.259Z,8.50
2018-10-21T06:57:23.940Z,8.50
2018-10-21T07:02:28.454Z,8.60
2018-10-21T07:07:32.877Z,8.60
2018-10-21T07:12:37.289Z,8.70
2018-10-21T07:17:42.250Z,8.80
2018-10-21T07:22:46.653Z,8.80
2018-10-21T07:27:51.210Z,9.20
2018-10-21T07:32:55.829Z,9.40
2018-10-21T07:38:06.715Z,9.80
2018-10-21T07:43:11.036Z,10.10
2018-10-21T07:48:15.728Z,10.20
2018-10-21T07:53:20.264Z,10.40
2018-10-21T07:58:25.355Z,10.60
2018-10-21T08:03:30.340Z,10.60
2018-10-21T08:08:35.409Z,10.70
2018-10-21T08:13:40.479Z,10.70
2018-10-21T08:18:45.461Z,11.00
2018-10-21T08:23:50.093Z,11.40
2018-10-21T08:28:54.685Z,11.60
2018-10-21T08:33:59.277Z,11.60
2018-10-21T08:39:03.747Z,11.80
2018-10-21T08:44:08.166Z,12.00
2018-10-21T08:49:12.672Z,11.80
2018-10-21T08:54:17.015Z,12.00
2018-10-21T08:59:22.172Z,12.00
2018-10-21T09:04:27.372Z,12.10
2018-10-21T09:09:31.761Z,12.50
2018-10-21T09:14:36.528Z,13.10
2018-10-21T09:19:41.044Z,13.40
2018-10-21T09:24:45.459Z,13.30
2018-10-21T09:29:49.883Z,13.30
2018-10-21T09:34:54.424Z,13.30
2018-10-21T09:39:58.855Z,13.50
2018-10-21T09:45:03.705Z,13.60
2018-10-21T09:50:08.387Z,13.90
2018-10-21T09:55:19.263Z,14.20
2018-10-21T10:00:29.402Z,14.90
2018-10-21T10:05:33.918Z,15.40
2018-10-21T10:10:45.359Z,15.50
2018-10-21T10:15:49.936Z,15.70
2018-10-21T10:20:54.310Z,16.30
2018-10-21T10:25:59.606Z,16.10
2018-10-21T10:31:04.785Z,17.50
2018-10-21T10:36:09.172Z,20.20
2018-10-21T10:41:14.204Z,21.70
2018-10-21T10:46:18.552Z,21.90
2018-10-21T10:51:23.061Z,22.30
2018-10-21T10:56:27.636Z,22.30
2018-10-21T11:01:33.015Z,23.10
2018-10-21T11:06:39.017Z,23.00
2018-10-21T11:11:43.511Z,22.20
2018-10-21T11:16:47.907Z,22.40
2018-10-21T11:21:52.554Z,23.30
2018-10-21T11:26:58.182Z,23.10
2018-10-21T11:32:02.727Z,23.70
2018-10-21T11:37:07.493Z,23.90
2018-10-21T11:42:11.915Z,23.70
2018-10-21T11:47:16.850Z,25.00
2018-10-21T11:52:21.579Z,24.10
2018-10-21T11:57:25.917Z,24.70
2018-10-21T12:02:30.315Z,23.80
2018-10-21T12:07:35.120Z,23.70
2018-10-21T12:12:40.633Z,24.30
2018-10-21T12:17:45.131Z,23.90
2018-10-21T12:22:49.731Z,23.60
2018-10-21T12:27:55.256Z,24.00
2018-10-21T12:32:59.931Z,22.40
2018-10-21T12:38:04.704Z,21.10
2018-10-21T12:43:09.256Z,20.60
2018-10-21T12:48:13.992Z,19.30
2018-10-21T12:53:18.544Z,19.00
2018-10-21T12:58:22.905Z,18.10
2018-10-21T13:03:27.375Z,17.30
2018-10-21T13:08:31.884Z,17.10
2018-10-21T13:13:36.408Z,16.80
2018-10-21T13:18:40.768Z,16.70
2018-10-21T13:23:45.898Z,16.50
2018-10-21T13:28:50.401Z,16.50
2018-10-21T13:33:55.498Z,16.30
2018-10-21T13:39:00.100Z,16.30
2018-10-21T13:44:05.517Z,16.30
2018-10-21T13:49:10.655Z,16.30
2018-10-21T13:54:14.958Z,16.10
2018-10-21T13:59:19.904Z,16.00
2018-10-21T14:04:24.854Z,15.90
2018-10-21T14:09:29.286Z,15.70
2018-10-21T14:14:34.314Z,15.60
2018-10-21T14:19:38.866Z,15.50
2018-10-21T14:24:43.482Z,15.50
2018-10-21T14:29:48.449Z,15.30
2018-10-21T14:34:53.611Z,15.30
2018-10-21T14:39:58.079Z,15.20
2018-10-21T14:45:02.745Z,15.20
2018-10-21T14:50:07.641Z,15.40
2018-10-21T14:55:12.028Z,15.20
2018-10-21T15:00:16.651Z,15.00
2018-10-21T15:05:21.964Z,14.80
2018-10-21T15:10:26.583Z,14.60
2018-10-21T15:15:31.226Z,14.50
2018-10-21T15:20:35.507Z,14.30
2018-10-21T15:25:40.906Z,14.10
2018-10-21T15:30:45.365Z,14.00
2018-10-21T15:36:02.603Z,13.90
2018-10-21T15:41:07.419Z,13.80
2018-10-21T15:46:12.038Z,13.60
2018-10-21T15:51:16.593Z,13.40
2018-10-21T15:56:22.004Z,13.20
2018-10-21T16:01:26.366Z,13.00
2018-10-21T16:06:30.719Z,12.90
2018-10-21T16:11:35.767Z,12.70
2018-10-21T16:16:40.336Z,12.60
2018-10-21T16:21:45.478Z,12.30
2018-10-21T16:26:50.415Z,12.20
2018-10-21T16:31:55.019Z,12.10
2018-10-21T16:36:59.529Z,11.90
2018-10-21T16:42:04.053Z,11.80
2018-10-21T16:52:59.642Z,11.50
2018-10-21T16:58:04.166Z,11.40
2018-10-21T17:03:08.557Z,11.20
2018-10-21T17:08:14.970Z,11.10
2018-10-21T17:13:20.520Z,10.90
2018-10-21T17:18:25.097Z,10.80
2018-10-21T17:23:30.063Z,10.80
2018-10-21T17:28:34.598Z,10.70
2018-10-21T17:33:39.443Z,10.70
2018-10-21T17:38:44.672Z,10.50
2018-10-21T17:43:49.275Z,10.50
2018-10-21T17:48:54.174Z,10.40
2018-10-21T17:53:59.254Z,10.30
2018-10-21T17:59:04.069Z,10.30
2018-10-21T18:04:09.940Z,10.30
2018-10-21T18:09:20.658Z,10.50
2018-10-21T18:14:25.927Z,10.60
2018-10-21T18:19:46.764Z,10.50
2018-10-21T18:24:52.340Z,10.40
2018-10-21T18:29:57.406Z,10.30
2018-10-21T18:35:01.862Z,10.30
2018-10-21T18:40:07.703Z,10.20
2018-10-21T18:45:14.637Z,10.10
2018-10-21T18:50:19.151Z,10.20
2018-10-21T18:55:23.779Z,10.00
2018-10-21T19:00:28.636Z,10.00
2018-10-21T19:05:33.635Z,10.00
2018-10-21T19:10:58.113Z,9.90
2018-10-21T19:16:03.075Z,9.90
2018-10-21T19:21:09.359Z,9.80
2018-10-21T19:26:14.055Z,9.80
2018-10-21T19:31:18.697Z,9.80
2018-10-21T19:36:23.918Z,9.90
2018-10-21T19:41:28.576Z,9.70
2018-10-21T19:46:34.825Z,9.60
2018-10-21T19:51:39.330Z,9.60
2018-10-21T19:56:44.007Z,9.40
2018-10-21T20:01:49.764Z,9.40
2018-10-21T20:06:55.417Z,9.40
2018-10-21T20:12:00.383Z,9.30
2018-10-21T20:17:05.687Z,9.20
2018-10-21T20:22:12.033Z,9.10
2018-10-21T20:27:17.485Z,9.10
2018-10-21T20:32:23.040Z,9.00
2018-10-21T20:37:27.490Z,8.90
2018-10-21T20:42:32.465Z,8.90
2018-10-21T20:47:37.442Z,8.80
2018-10-21T20:52:42.403Z,8.70
2018-10-21T20:57:47.098Z,8.60
2018-10-21T21:02:51.937Z,8.60
2018-10-21T21:07:56.561Z,8.50
2018-10-21T21:13:02.728Z,8.50
2018-10-21T21:18:12.807Z,8.50
2018-10-21T21:23:19.141Z,8.50
2018-10-21T21:28:23.686Z,8.40
2018-10-21T21:33:28.310Z,8.30
2018-10-21T21:38:32.589Z,8.20
2018-10-21T21:43:37.017Z,8.10
2018-10-21T21:48:41.635Z,8.00
2018-10-21T21:53:46.572Z,8.00
2018-10-21T21:58:51.303Z,8.10
2018-10-21T22:03:55.793Z,8.00
2018-10-21T22:09:00.989Z,7.90
2018-10-21T22:14:06.147Z,7.80
2018-10-21T22:19:10.796Z,7.80
2018-10-21T22:24:15.341Z,7.70
2018-10-21T22:29:20.143Z,7.70
2018-10-21T22:34:24.800Z,7.70
2018-10-21T22:39:29.848Z,7.60
2018-10-21T22:44:34.499Z,7.60
2018-10-21T22:49:39.056Z,7.50
2018-10-21T22:54:43.676Z,7.50
2018-10-21T23:07:11.269Z,7.40
2018-10-21T23:12:15.681Z,7.30
2018-10-21T23:17:27.292Z,7.40
2018-10-21T23:22:32.436Z,7.30
2018-10-21T23:27:37.664Z,7.20
2018-10-21T23:32:42.334Z,7.20
2018-10-21T23:37:46.906Z,7.10
2018-10-21T23:42:51.947Z,7.00
2018-10-21T23:47:56.554Z,7.00
2018-10-21T23:53:01.002Z,6.90
2018-10-21T23:58:05.522Z,6.80
